Time;durP1;ratioP1;P1;durP2;ratioP2;P2;SDS_P1;SDS_P2;PMS_P1;PMS_P2;Temp;Humidity;BMP_temperature;BMP_pressure;BME280_temperature;BME280_humidity;BME280_pressure;Samples;Min_cycle;Max_cycle;Signal;HPM_P1;HPM_P2
2023/06/15 00:02:45;;;;;;;4.93;4.22;;;;;;;;;;10308769;28;20084;-61
2023/06/15 00:07:43;;;;;;;6.72;5.20;;;;;;;;;;10312235;28;20094;-59
2023/06/15 00:12:42;;;;;;;5.20;4.18;;;;;;;;;;10311252;28;20502;-59
2023/06/15 00:17:41;;;;;;;7.47;4.20;;;;;;;;;;10310948;28;20072;-59
2023/06/15 00:22:45;;;;;;;4.45;4.03;;;;;;;;;;10309978;28;20071;-59
2023/06/15 00:27:44;;;;;;;8.35;3.80;;;;;;;;;;10311820;28;20476;-58
2023/06/15 00:32:43;;;;;;;4.45;4.05;;;;;;;;;;10310321;28;20064;-59
2023/06/15 00:37:43;;;;;;;6.03;3.67;;;;;;;;;;10312504;28;20072;-59
2023/06/15 00:42:41;;;;;;;4.63;3.80;;;;;;;;;;10308993;28;20079;-59
2023/06/15 00:47:42;;;;;;;4.15;3.70;;;;;;;;;;10311002;28;20514;-59
2023/06/15 00:52:41;;;;;;;5.68;3.95;;;;;;;;;;10310162;28;20111;-59
2023/06/15 00:57:44;;;;;;;4.32;3.80;;;;;;;;;;10307918;28;20087;-59
2023/06/15 01:02:42;;;;;;;4.20;3.88;;;;;;;;;;10299924;28;20095;-60
2023/06/15 01:07:46;;;;;;;5.93;4.05;;;;;;;;;;10310832;28;20072;-59
2023/06/15 01:12:45;;;;;;;;;;;;;;;;;;10309041;28;20074;-59
2023/06/15 01:17:46;;;;;;;4.88;3.78;;;;;;;;;;10309172;28;19959;-59
2023/06/15 01:22:49;;;;;;;4.28;3.58;;;;;;;;;;10309383;28;20083;-59
2023/06/15 01:27:49;;;;;;;5.80;4.10;;;;;;;;;;10307589;28;20072;-59
2023/06/15 01:32:47;;;;;;;7.07;3.80;;;;;;;;;;10315849;28;20086;-60
2023/06/15 01:37:46;;;;;;;9.07;4.35;;;;;;;;;;10319428;28;20083;-59
2023/06/15 01:42:45;;;;;;;5.78;3.97;;;;;;;;;;10315059;28;20072;-60
2023/06/15 01:47:45;;;;;;;5.97;3.75;;;;;;;;;;10317623;28;20080;-61
2023/06/15 01:52:43;;;;;;;7.60;4.57;;;;;;;;;;10314097;28;20538;-60
2023/06/15 01:57:41;;;;;;;7.18;4.88;;;;;;;;;;10312179;28;20076;-60
2023/06/15 02:02:40;;;;;;;5.30;4.80;;;;;;;;;;10310825;28;20092;-60
2023/06/15 02:07:40;;;;;;;5.30;4.80;;;;;;;;;;10327883;28;20076;-60
2023/06/15 02:12:39;;;;;;;5.53;4.95;;;;;;;;;;10312791;28;20494;-59
2023/06/15 02:17:47;;;;;;;8.35;5.05;;;;;;;;;;10312388;28;20111;-60
2023/06/15 02:22:48;;;;;;;7.22;5.18;;;;;;;;;;10302069;28;20520;-60
2023/06/15 02:27:46;;;;;;;5.80;5.15;;;;;;;;;;10313326;28;20442;-60
2023/06/15 02:32:45;;;;;;;9.15;5.47;;;;;;;;;;10317394;28;20494;-60
2023/06/15 02:37:43;;;;;;;9.85;4.80;;;;;;;;;;10315372;28;20072;-60
2023/06/15 02:42:43;;;;;;;7.72;5.22;;;;;;;;;;10313844;28;20079;-60
2023/06/15 02:47:43;;;;;;;8.52;5.40;;;;;;;;;;10303791;28;20088;-60
2023/06/15 02:52:45;;;;;;;9.15;6.82;;;;;;;;;;10313285;28;20540;-60
2023/06/15 02:57:46;;;;;;;6.38;5.40;;;;;;;;;;10306210;28;20091;-60
2023/06/15 03:03:04;;;;;;;8.25;4.97;;;;;;;;;;10310659;28;20083;-59
2023/06/15 03:08:08;;;;;;;9.27;5.53;;;;;;;;;;10310789;28;20082;-59
2023/06/15 03:13:16;;;;;;;7.13;5.22;;;;;;;;;;10303835;28;20076;-59
2023/06/15 03:18:16;;;;;;;5.22;4.40;;;;;;;;;;10308550;28;20079;-59
2023/06/15 03:23:14;;;;;;;8.65;5.13;;;;;;;;;;10311777;28;20102;-59
2023/06/15 03:28:13;;;;;;;14.98;6.90;;;;;;;;;;10307338;28;20091;-60
2023/06/15 03:33:16;;;;;;;13.18;6.18;;;;;;;;;;10312664;28;20079;-59
2023/06/15 03:38:15;;;;;;;;;;;;;;;;;;10311178;28;20080;-59
2023/06/15 03:43:14;;;;;;;6.88;6.22;;;;;;;;;;10327759;28;19959;-58
2023/06/15 03:48:16;;;;;;;10.38;6.45;;;;;;;;;;10310683;28;20076;-59
2023/06/15 03:53:15;;;;;;;8.13;5.07;;;;;;;;;;10310190;28;20513;-60
2023/06/15 03:58:14;;;;;;;6.78;4.78;;;;;;;;;;10305992;28;20075;-59
2023/06/15 04:03:13;;;;;;;12.20;8.48;;;;;;;;;;10308185;28;20499;-59
2023/06/15 04:08:13;;;;;;;21.45;9.73;;;;;;;;;;10309883;28;20082;-60
2023/06/15 04:13:12;;;;;;;14.73;7.65;;;;;;;;;;10312710;28;20080;-59
2023/06/15 04:18:10;;;;;;;12.32;8.02;;;;;;;;;;10309456;28;20068;-59
2023/06/15 04:23:10;;;;;;;8.25;4.60;;;;;;;;;;10309728;28;20493;-60
2023/06/15 04:28:10;;;;;;;5.13;4.20;;;;;;;;;;10309728;28;20072;-59
2023/06/15 04:33:12;;;;;;;7.18;4.57;;;;;;;;;;10311191;28;20502;-60
2023/06/15 04:38:13;;;;;;;8.90;4.20;;;;;;;;;;10308923;28;20528;-60
2023/06/15 04:43:16;;;;;;;13.10;7.00;;;;;;;;;;10307756;28;20078;-60
2023/06/15 04:48:17;;;;;;;14.50;9.77;;;;;;;;;;10310931;28;20068;-59
2023/06/15 04:53:17;;;;;;;16.75;9.00;;;;;;;;;;10310982;28;20067;-60
2023/06/15 04:58:17;;;;;;;16.27;8.30;;;;;;;;;;10310422;28;20079;-60
2023/06/15 05:03:15;;;;;;;15.98;7.85;;;;;;;;;;10308048;28;20482;-60
2023/06/15 05:08:15;;;;;;;12.70;8.35;;;;;;;;;;10330363;28;20110;-60
2023/06/15 05:13:14;;;;;;;22.65;9.13;;;;;;;;;;10307291;28;20064;-60
2023/06/15 05:18:14;;;;;;;32.10;9.27;;;;;;;;;;10311958;28;20072;-60
2023/06/15 05:23:13;;;;;;;23.95;8.88;;;;;;;;;;10311803;28;20084;-60
2023/06/15 05:28:13;;;;;;;20.10;8.95;;;;;;;;;;10310080;28;20076;-59
2023/06/15 05:33:14;;;;;;;16.48;9.40;;;;;;;;;;10306044;28;20079;-59
2023/06/15 05:38:12;;;;;;;18.73;6.32;;;;;;;;;;10302497;28;20071;-59
2023/06/15 05:43:12;;;;;;;8.27;5.65;;;;;;;;;;10313075;28;20080;-59
2023/06/15 05:48:10;;;;;;;5.72;3.95;;;;;;;;;;10313956;28;20098;-59
2023/06/15 05:53:10;;;;;;;7.80;4.30;;;;;;;;;;10312010;28;20055;-60
2023/06/15 05:58:08;;;;;;;7.40;3.85;;;;;;;;;;10305500;28;20067;-60
2023/06/15 06:03:07;;;;;;;7.32;4.15;;;;;;;;;;10311405;28;20080;-59
2023/06/15 06:08:15;;;;;;;3.97;3.47;;;;;;;;;;10306730;28;20072;-60
2023/06/15 06:13:13;;;;;;;7.22;3.67;;;;;;;;;;10323494;28;20076;-61
2023/06/15 06:18:11;;;;;;;7.78;4.07;;;;;;;;;;10310273;28;20509;-61
2023/06/15 06:23:10;;;;;;;9.45;3.97;;;;;;;;;;10309182;28;20102;-60
2023/06/15 06:28:10;;;;;;;9.43;6.22;;;;;;;;;;10306380;28;20076;-60
2023/06/15 06:33:08;;;;;;;6.15;3.90;;;;;;;;;;10311714;28;20072;-60
2023/06/15 06:38:06;;;;;;;4.53;3.80;;;;;;;;;;10315676;28;20099;-60
2023/06/15 06:43:05;;;;;;;4.22;3.42;;;;;;;;;;10315446;28;20068;-60
2023/06/15 06:48:05;;;;;;;6.47;4.10;;;;;;;;;;10313767;28;20547;-60
2023/06/15 06:53:03;;;;;;;4.63;4.25;;;;;;;;;;10315285;28;20072;-60
2023/06/15 06:58:01;;;;;;;5.93;4.47;;;;;;;;;;10317269;28;20092;-60
2023/06/15 07:03:00;;;;;;;5.63;4.13;;;;;;;;;;10316152;28;20072;-61
2023/06/15 07:07:59;;;;;;;9.93;4.90;;;;;;;;;;10316483;28;20650;-61
2023/06/15 07:12:58;;;;;;;5.55;4.35;;;;;;;;;;10314906;28;20521;-60
2023/06/15 07:17:58;;;;;;;7.05;3.50;;;;;;;;;;10315750;28;20561;-60
2023/06/15 07:22:57;;;;;;;5.82;3.47;;;;;;;;;;10315890;28;20083;-60
2023/06/15 07:27:56;;;;;;;5.95;3.75;;;;;;;;;;10315667;28;20064;-60
2023/06/15 07:32:55;;;;;;;12.18;4.18;;;;;;;;;;10315270;28;20452;-60
2023/06/15 07:37:53;;;;;;;8.35;3.38;;;;;;;;;;10314611;28;20071;-60
2023/06/15 07:42:51;;;;;;;9.75;3.40;;;;;;;;;;10315045;28;20076;-60
2023/06/15 07:47:51;;;;;;;8.15;5.03;;;;;;;;;;10315275;28;20072;-61
2023/06/15 07:52:50;;;;;;;8.38;3.97;;;;;;;;;;10313876;28;20103;-59
2023/06/15 07:57:48;;;;;;;8.85;3.20;;;;;;;;;;10313597;28;20068;-60
2023/06/15 08:02:46;;;;;;;4.85;2.85;;;;;;;;;;10313977;28;20091;-60
2023/06/15 08:07:46;;;;;;;3.72;2.95;;;;;;;;;;10312126;28;20068;-60
2023/06/15 08:12:44;;;;;;;5.93;3.15;;;;;;;;;;10313183;28;20079;-60
2023/06/15 08:17:42;;;;;;;3.35;3.00;;;;;;;;;;10313866;28;20079;-59
2023/06/15 08:22:40;;;;;;;3.38;2.67;;;;;;;;;;10313714;28;20509;-60
2023/06/15 08:27:40;;;;;;;10.55;9.50;;;;;;;;;;10313171;28;20071;-61
2023/06/15 08:32:38;;;;;;;7.53;6.78;;;;;;;;;;10312414;28;20078;-59
2023/06/15 08:37:36;;;;;;;7.75;3.53;;;;;;;;;;10313910;28;20067;-59
2023/06/15 08:42:34;;;;;;;5.40;3.45;;;;;;;;;;10316919;28;20083;-60
2023/06/15 08:47:34;;;;;;;5.28;3.00;;;;;;;;;;10320867;28;20079;-62
2023/06/15 08:52:36;;;;;;;6.25;3.67;;;;;;;;;;10321590;28;20491;-59
2023/06/15 08:57:35;;;;;;;4.90;3.03;;;;;;;;;;10321542;28;20080;-58
2023/06/15 09:02:40;;;;;;;3.45;2.78;;;;;;;;;;10319595;28;20095;-59
2023/06/15 09:07:38;;;;;;;5.72;3.20;;;;;;;;;;10320382;28;20442;-60
2023/06/15 09:12:41;;;;;;;5.75;3.55;;;;;;;;;;10319043;28;20075;-59
2023/06/15 09:17:41;;;;;;;3.33;3.03;;;;;;;;;;10317934;28;20099;-60
2023/06/15 09:22:43;;;;;;;9.00;4.35;;;;;;;;;;10319187;28;20473;-60
2023/06/15 09:27:42;;;;;;;6.30;4.38;;;;;;;;;;10319172;28;20466;-60
2023/06/15 09:32:42;;;;;;;6.03;4.18;;;;;;;;;;10317618;28;20095;-60
2023/06/15 09:37:40;;;;;;;23.55;14.95;;;;;;;;;;10320434;28;20044;-59
2023/06/15 09:42:39;;;;;;;13.48;6.85;;;;;;;;;;10319974;28;20075;-60
2023/06/15 09:47:38;;;;;;;4.35;3.80;;;;;;;;;;10319420;28;20072;-60
2023/06/15 09:52:42;;;;;;;5.10;3.30;;;;;;;;;;10319023;28;20130;-60
2023/06/15 09:57:41;;;;;;;3.95;3.10;;;;;;;;;;10318548;28;20076;-60
2023/06/15 10:02:40;;;;;;;4.57;3.75;;;;;;;;;;10319170;28;20088;-60
2023/06/15 10:07:41;;;;;;;6.32;3.28;;;;;;;;;;10317073;28;20083;-60
2023/06/15 10:12:41;;;;;;;12.00;6.93;;;;;;;;;;10317814;28;20072;-60
2023/06/15 10:17:40;;;;;;;5.40;3.85;;;;;;;;;;10318789;28;20075;-60
2023/06/15 10:22:45;;;;;;;4.45;3.72;;;;;;;;;;10318540;28;20165;-60
2023/06/15 10:27:43;;;;;;;4.88;3.50;;;;;;;;;;10317625;28;20324;-60
2023/06/15 10:32:45;;;;;;;4.30;3.90;;;;;;;;;;10317824;28;20080;-59
2023/06/15 10:37:49;;;;;;;5.85;2.97;;;;;;;;;;10317344;28;20095;-59
2023/06/15 10:42:48;;;;;;;8.00;3.55;;;;;;;;;;10316803;28;20509;-59
2023/06/15 10:47:48;;;;;;;5.30;2.35;;;;;;;;;;10317451;28;20076;-60
2023/06/15 10:52:48;;;;;;;3.35;2.75;;;;;;;;;;10317539;28;20068;-59
2023/06/15 10:57:46;;;;;;;2.53;2.20;;;;;;;;;;10316125;28;20041;-60
2023/06/15 11:02:56;;;;;;;4.35;2.72;;;;;;;;;;10316376;28;20088;-61
2023/06/15 11:07:57;;;;;;;2.22;2.03;;;;;;;;;;10315407;28;20524;-61
2023/06/15 11:13:01;;;;;;;2.70;2.50;;;;;;;;;;10316586;28;20087;-61
2023/06/15 11:17:59;;;;;;;3.45;2.58;;;;;;;;;;10315425;28;20509;-61
2023/06/15 11:23:01;;;;;;;2.65;2.45;;;;;;;;;;10315792;28;20072;-60
2023/06/15 11:28:02;;;;;;;3.15;2.25;;;;;;;;;;10315099;28;20063;-61
2023/06/15 11:33:00;;;;;;;2.65;1.92;;;;;;;;;;10315054;28;20084;-61
2023/06/15 11:38:00;;;;;;;3.30;2.10;;;;;;;;;;10314081;28;20084;-60
2023/06/15 11:42:58;;;;;;;3.20;2.20;;;;;;;;;;10314978;28;20596;-58
2023/06/15 11:47:57;;;;;;;2.10;1.80;;;;;;;;;;10314752;28;20079;-60
2023/06/15 11:52:55;;;;;;;2.40;2.17;;;;;;;;;;10313924;28;20076;-60
2023/06/15 11:57:55;;;;;;;2.90;2.40;;;;;;;;;;10313374;28;20076;-60
2023/06/15 12:02:53;;;;;;;2.15;1.95;;;;;;;;;;10312184;28;20096;-60
2023/06/15 12:07:51;;;;;;;2.00;1.83;;;;;;;;;;10313885;28;20078;-60
2023/06/15 12:12:51;;;;;;;2.20;2.10;;;;;;;;;;10314512;28;20068;-60
2023/06/15 12:17:50;;;;;;;4.43;2.30;;;;;;;;;;10314203;28;20075;-60
2023/06/15 12:22:49;;;;;;;4.00;1.95;;;;;;;;;;10311585;28;20083;-60
2023/06/15 12:27:49;;;;;;;2.35;2.17;;;;;;;;;;10313707;28;20148;-60
2023/06/15 12:32:51;;;;;;;3.73;2.17;;;;;;;;;;10313929;28;20091;-60
2023/06/15 12:37:50;;;;;;;3.78;2.10;;;;;;;;;;10311642;28;20529;-60
2023/06/15 12:42:56;;;;;;;3.95;2.03;;;;;;;;;;10312871;28;20083;-61
2023/06/15 12:47:55;;;;;;;4.32;2.17;;;;;;;;;;10313950;28;20521;-60
2023/06/15 12:52:56;;;;;;;5.63;3.03;;;;;;;;;;10313307;28;20083;-60
2023/06/15 12:57:55;;;;;;;5.43;2.72;;;;;;;;;;10312418;28;20077;-61
2023/06/15 13:02:54;;;;;;;8.38;3.25;;;;;;;;;;10312815;28;20091;-60
2023/06/15 13:07:53;;;;;;;1.95;1.85;;;;;;;;;;10313450;28;20080;-61
2023/06/15 13:12:51;;;;;;;2.85;2.35;;;;;;;;;;10310629;28;20083;-61
2023/06/15 13:17:50;;;;;;;3.22;1.90;;;;;;;;;;10311735;28;20078;-61
2023/06/15 13:22:51;;;;;;;5.05;2.10;;;;;;;;;;10312996;28;20079;-60
2023/06/15 13:27:49;;;;;;;2.42;2.10;;;;;;;;;;10314067;28;20087;-61
2023/06/15 13:32:48;;;;;;;5.15;2.30;;;;;;;;;;10319334;28;20064;-60
2023/06/15 13:37:47;;;;;;;4.05;2.28;;;;;;;;;;10320020;28;20086;-60
2023/06/15 13:42:46;;;;;;;3.28;2.50;;;;;;;;;;10317874;28;20079;-61
2023/06/15 13:47:44;;;;;;;5.40;3.00;;;;;;;;;;10317446;28;20068;-60
2023/06/15 13:52:46;;;;;;;3.17;2.80;;;;;;;;;;10317633;28;20076;-60
2023/06/15 13:57:46;;;;;;;9.13;4.93;;;;;;;;;;10318622;28;20087;-60
2023/06/15 14:02:45;;;;;;;4.05;2.33;;;;;;;;;;10319026;28;20085;-60
2023/06/15 14:07:44;;;;;;;2.72;2.40;;;;;;;;;;10318308;28;20118;-61
2023/06/15 14:12:42;;;;;;;3.28;2.60;;;;;;;;;;10317053;28;20075;-60
2023/06/15 14:17:41;;;;;;;3.83;3.42;;;;;;;;;;10318932;28;20458;-60
2023/06/15 14:22:40;;;;;;;3.55;3.25;;;;;;;;;;10310475;28;20068;-59
2023/06/15 14:27:38;;;;;;;4.80;3.15;;;;;;;;;;10318240;28;20064;-60
2023/06/15 14:32:36;;;;;;;7.38;3.92;;;;;;;;;;10317469;28;20068;-59
2023/06/15 14:37:36;;;;;;;7.97;5.75;;;;;;;;;;10315713;28;20071;-59
2023/06/15 14:42:34;;;;;;;7.80;6.63;;;;;;;;;;10315490;28;20083;-60
2023/06/15 14:47:33;;;;;;;7.78;3.47;;;;;;;;;;10316916;28;20069;-60
2023/06/15 14:52:32;;;;;;;4.50;3.17;;;;;;;;;;10315805;28;20067;-59
2023/06/15 14:57:31;;;;;;;7.88;3.42;;;;;;;;;;10313472;28;20063;-59
2023/06/15 15:02:30;;;;;;;3.47;3.05;;;;;;;;;;10312494;28;20068;-59
2023/06/15 15:07:28;;;;;;;3.58;3.05;;;;;;;;;;10315039;28;20466;-58
2023/06/15 15:12:28;;;;;;;5.53;3.38;;;;;;;;;;10313617;28;20513;-58
2023/06/15 15:17:28;;;;;;;5.15;3.22;;;;;;;;;;10310191;28;20068;-59
2023/06/15 15:22:27;;;;;;;5.25;3.95;;;;;;;;;;10312113;28;20076;-59
2023/06/15 15:27:25;;;;;;;7.38;3.20;;;;;;;;;;10307048;28;20080;-58
2023/06/15 15:32:23;;;;;;;3.97;3.58;;;;;;;;;;10311746;28;20072;-61
2023/06/15 15:37:23;;;;;;;5.47;3.50;;;;;;;;;;10315040;28;20077;-59
2023/06/15 15:42:21;;;;;;;5.57;3.92;;;;;;;;;;10307941;28;20059;-59
2023/06/15 15:47:20;;;;;;;3.22;2.92;;;;;;;;;;10298073;28;20083;-60
2023/06/15 15:52:18;;;;;;;3.20;2.90;;;;;;;;;;10301597;28;20071;-59
2023/06/15 15:57:17;;;;;;;6.18;3.15;;;;;;;;;;10313989;28;20060;-59
2023/06/15 16:02:16;;;;;;;3.63;3.33;;;;;;;;;;10306598;28;20076;-59
2023/06/15 16:07:14;;;;;;;4.78;3.30;;;;;;;;;;10311003;28;20083;-60
2023/06/15 16:12:12;;;;;;;6.75;3.58;;;;;;;;;;10310643;28;20075;-60
2023/06/15 16:17:12;;;;;;;3.92;3.63;;;;;;;;;;10307745;28;20060;-59
2023/06/15 16:22:11;;;;;;;6.07;4.20;;;;;;;;;;10310768;28;20044;-59
2023/06/15 16:27:10;;;;;;;4.22;3.85;;;;;;;;;;10298127;28;20505;-60
2023/06/15 16:32:09;;;;;;;5.93;4.68;;;;;;;;;;10304475;28;20076;-59
2023/06/15 16:37:08;;;;;;;3.42;2.92;;;;;;;;;;10303685;28;20087;-61
2023/06/15 16:42:07;;;;;;;7.43;4.03;;;;;;;;;;10303283;28;20316;-60
2023/06/15 16:47:05;;;;;;;6.78;5.82;;;;;;;;;;10295815;28;20152;-59
2023/06/15 16:52:04;;;;;;;5.18;2.90;;;;;;;;;;10290932;28;20080;-59
2023/06/15 16:57:05;;;;;;;4.88;3.97;;;;;;;;;;10292395;28;20072;-58
2023/06/15 17:02:05;;;;;;;12.13;5.75;;;;;;;;;;10305370;28;20100;-59
2023/06/15 17:07:04;;;;;;;6.57;5.80;;;;;;;;;;10320925;28;20084;-59
2023/06/15 17:12:04;;;;;;;11.13;9.00;;;;;;;;;;10318187;28;20079;-58
2023/06/15 17:17:03;;;;;;;5.10;3.70;;;;;;;;;;10315884;28;20072;-59
2023/06/15 17:22:01;;;;;;;5.15;4.57;;;;;;;;;;10315462;28;20075;-59
2023/06/15 17:27:00;;;;;;;8.07;5.18;;;;;;;;;;10319468;28;20079;-60
2023/06/15 17:32:02;;;;;;;4.38;3.97;;;;;;;;;;10316085;28;20071;-59
2023/06/15 17:37:01;;;;;;;6.15;4.93;;;;;;;;;;10318014;28;20068;-60
2023/06/15 17:41:59;;;;;;;7.82;6.90;;;;;;;;;;10316724;28;20076;-60
2023/06/15 17:46:57;;;;;;;5.78;3.03;;;;;;;;;;10318714;28;20076;-59
2023/06/15 17:51:57;;;;;;;4.35;3.95;;;;;;;;;;10310478;28;20475;-59
2023/06/15 17:56:55;;;;;;;7.22;3.53;;;;;;;;;;10314918;28;20507;-60
2023/06/15 18:01:53;;;;;;;5.03;4.05;;;;;;;;;;10315411;28;20095;-60
2023/06/15 18:06:52;;;;;;;6.35;4.13;;;;;;;;;;10311529;28;20483;-59
2023/06/15 18:11:51;;;;;;;6.18;4.15;;;;;;;;;;10310862;28;20072;-61
2023/06/15 18:16:49;;;;;;;4.28;3.58;;;;;;;;;;10307591;28;20072;-60
2023/06/15 18:21:48;;;;;;;10.18;5.80;;;;;;;;;;10317815;28;20079;-61
2023/06/15 18:26:46;;;;;;;4.65;4.22;;;;;;;;;;10306447;28;20518;-59
2023/06/15 18:31:46;;;;;;;5.57;4.70;;;;;;;;;;10307518;28;20064;-60
2023/06/15 18:36:44;;;;;;;11.15;5.63;;;;;;;;;;10309481;28;20079;-60
2023/06/15 18:41:42;;;;;;;5.40;4.25;;;;;;;;;;10312744;28;20064;-60
2023/06/15 18:46:41;;;;;;;7.80;4.70;;;;;;;;;;10306770;28;20079;-60
2023/06/15 18:51:40;;;;;;;8.45;5.95;;;;;;;;;;10313079;28;20532;-60
2023/06/15 18:56:39;;;;;;;16.60;8.65;;;;;;;;;;10306944;28;20083;-60
2023/06/15 19:01:37;;;;;;;8.60;6.25;;;;;;;;;;10309927;28;20079;-59
2023/06/15 19:06:38;;;;;;;9.63;7.30;;;;;;;;;;10311638;28;20076;-60
2023/06/15 19:11:38;;;;;;;20.25;16.55;;;;;;;;;;10310657;28;20067;-60
2023/06/15 19:16:36;;;;;;;15.35;9.90;;;;;;;;;;10312970;28;20071;-60
2023/06/15 19:21:36;;;;;;;10.45;8.10;;;;;;;;;;10312284;28;20060;-59
2023/06/15 19:26:36;;;;;;;7.18;6.47;;;;;;;;;;10294201;28;20079;-59
2023/06/15 19:31:35;;;;;;;8.05;5.95;;;;;;;;;;10302997;28;20474;-60
2023/06/15 19:36:34;;;;;;;8.07;6.65;;;;;;;;;;10306690;28;20494;-60
2023/06/15 19:41:32;;;;;;;7.70;5.50;;;;;;;;;;10307956;28;20064;-60
2023/06/15 19:46:31;;;;;;;7.32;4.97;;;;;;;;;;10302628;28;20067;-60
2023/06/15 19:51:30;;;;;;;8.52;5.78;;;;;;;;;;10304393;28;20461;-59
2023/06/15 19:56:28;;;;;;;14.07;5.55;;;;;;;;;;10305366;28;20064;-61
2023/06/15 20:01:27;;;;;;;13.65;6.32;;;;;;;;;;10307294;28;20071;-59
2023/06/15 20:06:25;;;;;;;13.70;7.80;;;;;;;;;;10309537;28;20079;-59
2023/06/15 20:11:25;;;;;;;8.13;5.90;;;;;;;;;;10304157;28;20091;-60
2023/06/15 20:16:23;;;;;;;13.05;7.75;;;;;;;;;;10303278;28;20068;-59
2023/06/15 20:21:23;;;;;;;12.30;7.47;;;;;;;;;;10311668;28;20059;-60
2023/06/15 20:26:21;;;;;;;9.18;5.70;;;;;;;;;;10303279;28;20072;-59
2023/06/15 20:31:21;;;;;;;11.68;4.97;;;;;;;;;;10308589;28;20079;-60
2023/06/15 20:36:19;;;;;;;12.05;6.47;;;;;;;;;;10307171;28;20575;-58
2023/06/15 20:41:18;;;;;;;7.60;5.72;;;;;;;;;;10296944;28;20503;-60
2023/06/15 20:46:16;;;;;;;9.52;5.97;;;;;;;;;;10308404;28;20072;-59
2023/06/15 20:51:20;;;;;;;6.72;5.75;;;;;;;;;;10305675;28;20076;-59
2023/06/15 20:56:18;;;;;;;7.95;5.28;;;;;;;;;;10309613;28;20489;-60
2023/06/15 21:01:16;;;;;;;6.13;5.35;;;;;;;;;;10306610;28;20076;-59
2023/06/15 21:06:15;;;;;;;9.07;4.90;;;;;;;;;;10304620;28;20079;-59
2023/06/15 21:11:17;;;;;;;5.20;4.30;;;;;;;;;;10309103;28;20076;-60
2023/06/15 21:16:15;;;;;;;4.47;3.95;;;;;;;;;;10308319;28;20080;-60
2023/06/15 21:21:13;;;;;;;6.38;3.70;;;;;;;;;;10308439;28;20068;-60
2023/06/15 21:26:11;;;;;;;3.65;3.35;;;;;;;;;;10307637;28;20119;-60
2023/06/15 21:31:11;;;;;;;5.80;4.20;;;;;;;;;;10309049;28;20072;-59
2023/06/15 21:36:11;;;;;;;6.65;3.75;;;;;;;;;;10309862;28;20067;-60
2023/06/15 21:41:09;;;;;;;4.65;3.85;;;;;;;;;;10307378;28;20466;-59
2023/06/15 21:46:07;;;;;;;4.93;4.43;;;;;;;;;;10308304;28;20072;-60
2023/06/15 21:51:07;;;;;;;5.00;4.07;;;;;;;;;;10313393;28;20071;-59
2023/06/15 21:56:07;;;;;;;5.63;4.35;;;;;;;;;;10312959;28;20526;-60
2023/06/15 22:01:05;;;;;;;4.68;4.28;;;;;;;;;;10315607;28;20076;-59
2023/06/15 22:06:03;;;;;;;9.23;4.55;;;;;;;;;;10313339;28;20064;-59
2023/06/15 22:11:03;;;;;;;7.50;4.60;;;;;;;;;;10316523;28;20079;-59
2023/06/15 22:16:01;;;;;;;6.15;4.68;;;;;;;;;;10311702;28;20670;-61
2023/06/15 22:21:01;;;;;;;4.88;4.47;;;;;;;;;;10314651;28;20290;-61
2023/06/15 22:26:00;;;;;;;5.13;4.00;;;;;;;;;;10314541;28;20064;-59
2023/06/15 22:30:59;;;;;;;7.63;4.30;;;;;;;;;;10314081;28;20535;-59
2023/06/15 22:35:58;;;;;;;5.28;3.80;;;;;;;;;;10316807;28;20080;-59
2023/06/15 22:40:56;;;;;;;9.23;3.80;;;;;;;;;;10313414;28;20072;-60
2023/06/15 22:45:54;;;;;;;7.78;4.45;;;;;;;;;;10314590;28;20086;-60
2023/06/15 22:50:55;;;;;;;5.82;4.00;;;;;;;;;;10313527;28;20068;-60
2023/06/15 22:55:54;;;;;;;5.03;3.85;;;;;;;;;;10313526;28;20076;-60
2023/06/15 23:00:54;;;;;;;8.20;4.15;;;;;;;;;;10313418;28;20986;-60
2023/06/15 23:05:56;;;;;;;4.35;4.05;;;;;;;;;;10310131;28;20529;-61
2023/06/15 23:10:55;;;;;;;7.43;4.30;;;;;;;;;;10316971;28;20111;-60
2023/06/15 23:15:55;;;;;;;6.63;4.20;;;;;;;;;;10305711;28;20079;-59
2023/06/15 23:20:58;;;;;;;5.93;4.28;;;;;;;;;;10305298;28;20064;-59
2023/06/15 23:25:58;;;;;;;6.32;4.32;;;;;;;;;;10304908;28;20536;-60
2023/06/15 23:30:56;;;;;;;5.07;4.13;;;;;;;;;;10309713;28;20072;-59
2023/06/15 23:35:59;;;;;;;7.78;4.30;;;;;;;;;;10310570;28;20073;-59
2023/06/15 23:40:57;;;;;;;6.45;4.35;;;;;;;;;;10311388;28;20083;-58
2023/06/15 23:45:56;;;;;;;10.32;4.90;;;;;;;;;;10311321;28;20072;-59
2023/06/15 23:50:54;;;;;;;5.85;4.50;;;;;;;;;;10310846;28;20079;-59
2023/06/15 23:55:53;;;;;;;4.50;4.13;;;;;;;;;;10307986;28;20479;-59
